Time;durP1;ratioP1;P1;durP2;ratioP2;P2;SDS_P1;SDS_P2;PMS_P1;PMS_P2;Temp;Humidity;BMP_temperature;BMP_pressure;BME280_temperature;BME280_humidity;BME280_pressure;Samples;Min_cycle;Max_cycle;Signal;HPM_P1;HPM_P2
2023/03/15 00:00:22;;;;;;;12.00;2.13;;;2.90;99.90;;;;;;5069060;28;20079;-44
2023/03/15 00:02:48;;;;;;;13.65;2.10;;;2.90;99.90;;;;;;5070143;28;20116;-40
2023/03/15 00:05:13;;;;;;;10.13;2.22;;;3.00;99.90;;;;;;5051596;28;20049;-40
2023/03/15 00:07:40;;;;;;;13.88;2.45;;;3.00;99.90;;;;;;5059463;28;20143;-45
2023/03/15 00:10:06;;;;;;;11.10;1.75;;;3.00;99.90;;;;;;5078214;28;20044;-45
2023/03/15 00:12:33;;;;;;;15.18;2.05;;;3.00;99.90;;;;;;5077120;28;20153;-42
2023/03/15 00:14:59;;;;;;;12.07;2.20;;;3.00;99.90;;;;;;5074414;28;20146;-38
2023/03/15 00:17:24;;;;;;;8.40;1.70;;;3.00;99.90;;;;;;5072156;28;20147;-42
2023/03/15 00:19:50;;;;;;;16.45;3.30;;;2.90;99.90;;;;;;5076503;28;20604;-42
2023/03/15 00:22:15;;;;;;;9.88;1.42;;;2.90;99.90;;;;;;5077437;28;20139;-42
2023/03/15 00:24:44;;;;;;;13.00;1.98;;;2.80;99.90;;;;;;5077688;28;20083;-38
2023/03/15 00:27:09;;;;;;;7.90;2.10;;;2.80;99.90;;;;;;5076365;28;20054;-41
2023/03/15 00:29:35;;;;;;;10.75;2.00;;;2.70;99.90;;;;;;5077790;28;20043;-41
2023/03/15 00:32:01;;;;;;;4.43;1.60;;;2.70;99.90;;;;;;5077073;28;20398;-44
2023/03/15 00:34:26;;;;;;;8.27;1.50;;;2.60;99.90;;;;;;5076789;28;20090;-45
2023/03/15 00:36:52;;;;;;;13.73;2.00;;;2.60;99.90;;;;;;5072177;28;20048;-44
2023/03/15 00:39:24;;;;;;;12.52;1.85;;;2.50;99.90;;;;;;5073775;28;20055;-41
2023/03/15 00:41:51;;;;;;;14.02;1.95;;;2.50;99.90;;;;;;5074581;28;20573;-45
2023/03/15 00:44:17;;;;;;;11.50;1.88;;;2.50;99.90;;;;;;5064332;28;20048;-46
2023/03/15 00:46:42;;;;;;;11.48;1.38;;;2.50;99.90;;;;;;5060978;28;20060;-43
2023/03/15 00:49:08;;;;;;;6.90;1.77;;;2.50;99.90;;;;;;5076951;28;20056;-43
2023/03/15 00:51:36;;;;;;;9.60;1.52;;;2.50;99.90;;;;;;5076568;28;20426;-42
2023/03/15 00:54:02;;;;;;;7.85;1.30;;;2.50;99.90;;;;;;5059394;28;20125;-38
2023/03/15 00:56:30;;;;;;;10.90;2.15;;;2.40;99.90;;;;;;5052213;28;20044;-46
2023/03/15 00:58:57;;;;;;;8.55;1.30;;;2.40;99.90;;;;;;5056452;28;20044;-45
2023/03/15 01:01:25;;;;;;;10.52;1.90;;;2.30;99.90;;;;;;5077338;28;20539;-41
2023/03/15 01:03:51;;;;;;;10.90;2.70;;;2.20;99.90;;;;;;5054064;28;20045;-45
2023/03/15 01:06:22;;;;;;;11.90;1.67;;;2.20;99.90;;;;;;5056920;28;20059;-44
2023/03/15 01:08:48;;;;;;;6.60;1.85;;;2.10;99.90;;;;;;5056051;28;20552;-44
2023/03/15 01:11:20;;;;;;;14.30;1.70;;;2.00;99.90;;;;;;5076889;28;20353;-43
2023/03/15 01:13:45;;;;;;;7.93;1.10;;;2.00;99.90;;;;;;5076629;28;20510;-42
2023/03/15 01:16:13;;;;;;;8.02;1.73;;;1.90;99.90;;;;;;5076956;28;20135;-38
2023/03/15 01:18:40;;;;;;;8.20;2.08;;;1.90;99.90;;;;;;5074167;28;20051;-47
2023/03/15 01:21:11;;;;;;;6.07;1.75;;;1.80;99.90;;;;;;5077113;28;20048;-43
2023/03/15 01:23:37;;;;;;;7.32;1.27;;;1.70;99.90;;;;;;5076528;28;20418;-42
2023/03/15 01:26:06;;;;;;;9.15;1.75;;;1.70;99.90;;;;;;5076770;28;20563;-46
2023/03/15 01:28:32;;;;;;;4.75;1.20;;;1.70;99.90;;;;;;5074268;28;20067;-40
2023/03/15 01:30:57;;;;;;;5.78;1.48;;;1.60;99.90;;;;;;5075880;28;20039;-39
2023/03/15 01:33:23;;;;;;;4.90;1.75;;;1.60;99.90;;;;;;5073102;28;20665;-44
2023/03/15 01:36:01;;;;;;;12.48;2.45;;;1.60;99.90;;;;;;5056325;28;20084;-44
2023/03/15 01:38:27;;;;;;;5.57;1.33;;;1.60;99.90;;;;;;5053825;28;20154;-42
2023/03/15 01:40:53;;;;;;;8.55;1.42;;;1.60;99.90;;;;;;5055865;28;20070;-41
2023/03/15 01:43:21;;;;;;;11.45;1.77;;;1.70;99.90;;;;;;5055203;28;20483;-41
2023/03/15 01:45:55;;;;;;;7.85;1.27;;;1.70;99.90;;;;;;5055671;28;20052;-41
2023/03/15 01:48:24;;;;;;;6.60;1.50;;;1.80;99.90;;;;;;5054616;28;20460;-42
2023/03/15 01:50:53;;;;;;;8.27;1.63;;;1.80;99.90;;;;;;5054768;28;20060;-46
2023/03/15 01:53:20;;;;;;;6.10;1.30;;;1.80;99.90;;;;;;5050866;28;20856;-45
2023/03/15 01:55:46;;;;;;;9.32;1.42;;;1.70;99.90;;;;;;5060613;28;20081;-43
2023/03/15 01:58:13;;;;;;;10.98;1.85;;;1.70;99.90;;;;;;5067279;28;20247;-43
2023/03/15 02:00:39;;;;;;;8.98;1.90;;;1.60;99.90;;;;;;5055660;28;20040;-48
2023/03/15 02:03:13;;;;;;;4.97;1.20;;;1.60;99.90;;;;;;5064115;28;20454;-50
2023/03/15 02:05:44;;;;;;;;;;;1.70;99.90;;;;;;5053557;28;20582;-47
2023/03/15 02:08:11;;;;;;;8.80;1.60;;;1.70;99.90;;;;;;5074639;28;20354;-44
2023/03/15 02:10:43;;;;;;;11.50;1.95;;;1.70;99.90;;;;;;5074672;28;20058;-42
2023/03/15 02:13:10;;;;;;;7.47;1.40;;;1.80;99.90;;;;;;5076231;28;20154;-47
2023/03/15 02:15:36;;;;;;;6.45;1.40;;;1.80;99.90;;;;;;5072940;28;20059;-44
2023/03/15 02:18:02;;;;;;;10.10;1.48;;;1.80;99.90;;;;;;5063691;28;20048;-43
2023/03/15 02:21:05;;;;;;;6.75;1.50;;;1.80;99.90;;;;;;5059185;28;20739;-39
2023/03/15 02:23:31;;;;;;;7.55;2.80;;;1.80;99.90;;;;;;5069194;28;20697;-43
2023/03/15 02:26:06;;;;;;;8.70;1.40;;;1.80;99.90;;;;;;5075220;28;20048;-44
2023/03/15 02:28:32;;;;;;;6.97;1.33;;;1.80;99.90;;;;;;5073919;28;20453;-46
2023/03/15 02:30:58;;;;;;;7.30;1.63;;;1.80;99.90;;;;;;5075090;28;20147;-44
2023/03/15 02:33:44;;;;;;;12.73;1.60;;;1.80;99.90;;;;;;5057004;28;20056;-45
2023/03/15 02:36:21;;;;;;;4.35;0.93;;;1.70;99.90;;;;;;5075990;28;20609;-46
2023/03/15 02:38:47;;;;;;;6.85;1.35;;;1.70;99.90;;;;;;5041680;28;20049;-39
2023/03/15 02:41:18;;;;;;;6.75;1.48;;;1.70;99.90;;;;;;5054786;28;20044;-44
2023/03/15 02:43:46;;;;;;;6.10;1.30;;;1.60;99.90;;;;;;5055265;28;20082;-39
2023/03/15 02:46:12;;;;;;;6.40;1.48;;;1.50;99.90;;;;;;5054505;28;20052;-42
2023/03/15 02:48:40;;;;;;;6.85;1.20;;;1.50;99.90;;;;;;5054061;28;20059;-44
2023/03/15 02:51:05;;;;;;;10.25;1.25;;;1.40;99.90;;;;;;5055696;28;20504;-42
2023/03/15 02:53:32;;;;;;;8.60;2.00;;;1.30;99.90;;;;;;5053247;28;20400;-38
2023/03/15 02:55:58;;;;;;;4.20;1.02;;;1.30;99.90;;;;;;5049984;28;20056;-41
2023/03/15 02:58:24;;;;;;;7.18;1.23;;;1.20;99.90;;;;;;5053331;28;20044;-40
2023/03/15 03:00:52;;;;;;;6.57;1.10;;;1.20;99.90;;;;;;5049337;28;20037;-43
2023/03/15 03:03:18;;;;;;;3.67;1.13;;;1.10;99.90;;;;;;5046776;28;20056;-44
2023/03/15 03:05:44;;;;;;;5.28;0.90;;;1.10;99.90;;;;;;5052234;28;20056;-38
2023/03/15 03:08:09;;;;;;;5.65;1.15;;;1.00;99.90;;;;;;5073460;28;20055;-44
2023/03/15 03:10:35;;;;;;;5.55;1.33;;;1.00;99.90;;;;;;5075133;28;20039;-40
2023/03/15 03:13:01;;;;;;;6.57;1.08;;;1.00;99.90;;;;;;5074133;28;20048;-45
2023/03/15 03:15:26;;;;;;;6.20;0.95;;;0.90;99.90;;;;;;5073395;28;20147;-42
2023/03/15 03:17:53;;;;;;;5.53;0.95;;;0.90;99.90;;;;;;5072676;28;20131;-42
2023/03/15 03:20:18;;;;;;;5.47;1.27;;;0.90;99.90;;;;;;5073603;28;20040;-42
2023/03/15 03:22:44;;;;;;;4.32;0.95;;;0.90;99.90;;;;;;5066910;28;20470;-46
2023/03/15 03:25:11;;;;;;;5.88;1.15;;;0.90;99.90;;;;;;5067526;28;20067;-47
2023/03/15 03:27:37;;;;;;;4.90;1.30;;;0.90;99.90;;;;;;5074850;28;20194;-41
2023/03/15 03:30:10;;;;;;;3.88;1.00;;;0.90;99.90;;;;;;5073007;28;20050;-44
2023/03/15 03:32:36;;;;;;;8.17;1.40;;;0.90;99.90;;;;;;5054839;28;20051;-41
2023/03/15 03:35:02;;;;;;;5.55;1.17;;;1.00;99.90;;;;;;5056823;28;20052;-43
2023/03/15 03:37:29;;;;;;;7.45;1.52;;;1.10;99.90;;;;;;5060581;28;20079;-43
2023/03/15 03:39:56;;;;;;;8.55;1.40;;;1.10;99.90;;;;;;5070127;28;20044;-44
2023/03/15 03:42:21;;;;;;;7.75;1.40;;;1.10;99.90;;;;;;5074573;28;20532;-40
2023/03/15 03:44:49;;;;;;;8.52;2.47;;;1.20;99.90;;;;;;5074300;28;20130;-46
2023/03/15 03:47:14;;;;;;;7.78;1.20;;;1.20;99.90;;;;;;5073408;28;20134;-42
2023/03/15 03:49:40;;;;;;;5.20;1.58;;;1.20;99.90;;;;;;5074059;28;20060;-43
2023/03/15 03:52:06;;;;;;;4.25;1.05;;;1.20;99.90;;;;;;5073142;28;20528;-42
2023/03/15 03:54:31;;;;;;;5.22;1.33;;;1.20;99.90;;;;;;5054026;28;20089;-42
2023/03/15 03:56:57;;;;;;;6.55;2.28;;;1.20;99.90;;;;;;5047646;28;20044;-44
2023/03/15 03:59:23;;;;;;;4.35;1.33;;;1.20;99.90;;;;;;5053983;28;20048;-44
2023/03/15 04:01:50;;;;;;;6.03;1.88;;;1.20;99.90;;;;;;5062757;28;20040;-41
2023/03/15 04:04:15;;;;;;;7.75;1.88;;;1.30;99.90;;;;;;5029583;28;20443;-43
2023/03/15 04:06:44;;;;;;;7.65;2.35;;;1.30;99.90;;;;;;5062046;28;20090;-43
2023/03/15 04:09:14;;;;;;;8.88;1.42;;;1.30;99.90;;;;;;5073561;28;20091;-45
2023/03/15 04:11:42;;;;;;;6.80;1.35;;;1.30;99.90;;;;;;5073634;28;20043;-41
2023/03/15 04:14:09;;;;;;;14.02;3.25;;;1.30;99.90;;;;;;5074715;28;20052;-46
2023/03/15 04:16:35;;;;;;;5.63;1.20;;;1.30;99.90;;;;;;5077931;28;20060;-43
2023/03/15 04:19:01;;;;;;;7.93;1.25;;;1.30;99.90;;;;;;5075402;28;20530;-42
2023/03/15 04:21:30;;;;;;;6.93;1.35;;;1.30;99.90;;;;;;5066065;28;20036;-40
2023/03/15 04:23:58;;;;;;;3.78;1.15;;;1.30;99.90;;;;;;5074119;28;20063;-49
2023/03/15 04:26:25;;;;;;;9.27;1.75;;;1.30;99.90;;;;;;5077533;28;20048;-39
2023/03/15 04:28:56;;;;;;;8.20;1.85;;;1.30;99.90;;;;;;5076673;28;20519;-42
2023/03/15 04:31:26;;;;;;;6.72;1.98;;;1.30;99.90;;;;;;5076789;28;20036;-42
2023/03/15 04:33:55;;;;;;;8.52;1.67;;;1.30;99.90;;;;;;5076631;28;20387;-39
2023/03/15 04:36:21;;;;;;;7.85;1.55;;;1.30;99.90;;;;;;5074430;28;20047;-41
2023/03/15 04:38:48;;;;;;;6.93;1.60;;;1.30;99.90;;;;;;5056737;28;20053;-45
2023/03/15 04:41:15;;;;;;;8.43;1.73;;;1.30;99.90;;;;;;5057699;28;20052;-41
2023/03/15 04:43:41;;;;;;;8.07;1.65;;;1.30;99.90;;;;;;5077898;28;20048;-46
2023/03/15 04:46:07;;;;;;;8.23;1.98;;;1.20;99.90;;;;;;5077710;28;20535;-48
2023/03/15 04:48:33;;;;;;;7.53;1.27;;;1.20;99.90;;;;;;5075616;28;20500;-43
2023/03/15 04:50:59;;;;;;;9.27;2.15;;;1.20;99.90;;;;;;5077114;28;20331;-41
2023/03/15 04:53:25;;;;;;;10.27;1.80;;;1.10;99.90;;;;;;5062893;28;20051;-44
2023/03/15 04:55:51;;;;;;;9.25;2.08;;;1.10;99.90;;;;;;5050373;28;20072;-47
2023/03/15 04:58:17;;;;;;;8.63;1.42;;;1.10;99.90;;;;;;5055561;28;20052;-40
2023/03/15 05:00:42;;;;;;;5.82;1.50;;;1.10;99.90;;;;;;5060321;28;20056;-48
2023/03/15 05:03:08;;;;;;;6.25;2.47;;;1.10;99.90;;;;;;5035890;28;20427;-51
2023/03/15 05:05:34;;;;;;;4.55;1.05;;;1.10;99.90;;;;;;5052607;28;20739;-40
2023/03/15 05:08:00;;;;;;;7.47;1.27;;;1.10;99.90;;;;;;5068008;28;20052;-44
2023/03/15 05:10:28;;;;;;;5.10;1.42;;;1.20;99.90;;;;;;5069660;28;20043;-46
2023/03/15 05:12:54;;;;;;;7.47;1.38;;;1.20;99.90;;;;;;5075040;28;20048;-40
2023/03/15 05:15:20;;;;;;;4.63;1.05;;;1.20;99.90;;;;;;5077049;28;20140;-44
2023/03/15 05:17:45;;;;;;;5.00;1.40;;;1.20;99.90;;;;;;5075794;28;20131;-41
2023/03/15 05:20:13;;;;;;;12.73;1.48;;;1.20;99.90;;;;;;5076980;28;20052;-43
2023/03/15 05:22:39;;;;;;;7.28;1.40;;;1.20;99.90;;;;;;5076194;28;20471;-47
2023/03/15 05:25:06;;;;;;;8.20;1.40;;;1.10;99.90;;;;;;5076888;28;20040;-45
2023/03/15 05:27:33;;;;;;;8.07;1.58;;;1.10;99.90;;;;;;5067273;28;20110;-45
2023/03/15 05:30:01;;;;;;;4.90;1.30;;;1.10;99.90;;;;;;5055876;28;20060;-40
2023/03/15 05:32:28;;;;;;;5.95;1.20;;;1.10;99.90;;;;;;5056272;28;20049;-43
2023/03/15 05:34:53;;;;;;;9.57;1.70;;;1.00;99.90;;;;;;5057608;28;20048;-40
2023/03/15 05:37:22;;;;;;;7.15;1.50;;;1.00;99.90;;;;;;5071962;28;20051;-39
2023/03/15 05:39:48;;;;;;;4.63;1.10;;;1.00;99.90;;;;;;5075992;28;20052;-42
2023/03/15 05:42:20;;;;;;;8.30;1.55;;;0.90;99.90;;;;;;5076081;28;20058;-45
2023/03/15 05:44:46;;;;;;;4.90;1.30;;;0.90;99.90;;;;;;5075743;28;20177;-44
2023/03/15 05:47:12;;;;;;;11.38;1.65;;;0.90;99.90;;;;;;5074944;28;20436;-46
2023/03/15 05:49:37;;;;;;;10.60;1.60;;;0.80;99.90;;;;;;5076009;28;20382;-48
2023/03/15 05:52:03;;;;;;;8.63;2.05;;;0.90;99.90;;;;;;5074612;28;20044;-41
2023/03/15 05:54:29;;;;;;;7.68;1.50;;;0.80;99.90;;;;;;5055256;28;20044;-40
2023/03/15 05:56:55;;;;;;;8.35;1.60;;;0.80;99.90;;;;;;5060399;28;20079;-45
2023/03/15 05:59:20;;;;;;;5.50;1.50;;;0.70;99.90;;;;;;5074020;28;20048;-44
2023/03/15 06:01:46;;;;;;;7.43;1.85;;;0.70;99.90;;;;;;5065963;28;20052;-39
2023/03/15 06:04:11;;;;;;;10.82;1.55;;;0.70;99.90;;;;;;5048741;28;20060;-43
2023/03/15 06:06:37;;;;;;;9.93;1.98;;;0.70;99.90;;;;;;5063519;28;20087;-45
2023/03/15 06:09:03;;;;;;;8.30;1.65;;;0.70;99.90;;;;;;5075337;28;20083;-43
2023/03/15 06:11:29;;;;;;;8.15;1.55;;;0.70;99.90;;;;;;5075266;28;20450;-39
2023/03/15 06:13:54;;;;;;;11.82;3.10;;;0.70;99.90;;;;;;5073497;28;20040;-40
2023/03/15 06:16:20;;;;;;;8.70;2.50;;;0.70;99.90;;;;;;5075586;28;20157;-42
2023/03/15 06:18:45;;;;;;;6.00;2.10;;;0.70;99.90;;;;;;5074763;28;20206;-48
2023/03/15 06:21:11;;;;;;;10.82;2.38;;;0.70;99.90;;;;;;5076179;28;20591;-40
2023/03/15 06:23:37;;;;;;;6.82;1.92;;;0.70;99.90;;;;;;5075623;28;20106;-49
2023/03/15 06:26:02;;;;;;;8.00;2.45;;;0.80;99.90;;;;;;5074403;28;20554;-43
2023/03/15 06:28:28;;;;;;;12.30;2.83;;;1.30;99.90;;;;;;5074699;28;20044;-43
2023/03/15 06:30:53;;;;;;;10.35;2.33;;;1.90;99.90;;;;;;5075535;28;20044;-40
2023/03/15 06:33:20;;;;;;;11.93;2.90;;;2.60;99.90;;;;;;5075513;28;20509;-38
2023/03/15 06:35:46;;;;;;;8.68;2.00;;;3.30;99.90;;;;;;5075277;28;20048;-44
2023/03/15 06:38:13;;;;;;;13.50;2.53;;;4.00;99.90;;;;;;5054793;28;20052;-42
2023/03/15 06:40:38;;;;;;;10.55;2.50;;;4.60;99.90;;;;;;5055185;28;20475;-47
2023/03/15 06:43:05;;;;;;;9.88;2.25;;;5.10;99.90;;;;;;5055069;28;20554;-40
2023/03/15 06:45:32;;;;;;;7.50;1.98;;;5.70;99.90;;;;;;5054419;28;20052;-40
2023/03/15 06:47:58;;;;;;;6.82;1.70;;;6.10;99.90;;;;;;5053053;28;20051;-42
2023/03/15 06:50:23;;;;;;;8.57;2.08;;;6.40;99.90;;;;;;5054051;28;20045;-40
2023/03/15 06:52:49;;;;;;;10.02;2.05;;;6.50;99.90;;;;;;5052362;28;20148;-41
2023/03/15 06:55:17;;;;;;;8.10;2.17;;;6.30;99.90;;;;;;5053493;28;20063;-49
2023/03/15 06:57:45;;;;;;;5.68;1.92;;;6.10;99.90;;;;;;5049575;28;20048;-43
2023/03/15 07:00:11;;;;;;;6.60;1.92;;;5.90;99.90;;;;;;5054272;28;20052;-45
2023/03/15 07:02:37;;;;;;;4.32;1.50;;;5.70;99.90;;;;;;5067367;28;20444;-43
2023/03/15 07:05:04;;;;;;;8.65;2.00;;;5.60;99.90;;;;;;5046582;28;20040;-42
2023/03/15 07:07:30;;;;;;;7.65;2.25;;;5.60;99.90;;;;;;5052808;28;20299;-43
2023/03/15 07:09:55;;;;;;;8.23;2.42;;;5.70;99.90;;;;;;5063673;28;20402;-39
2023/03/15 07:12:21;;;;;;;7.60;1.80;;;5.70;99.90;;;;;;5072057;28;20426;-42
2023/03/15 07:14:48;;;;;;;5.55;1.73;;;5.70;99.90;;;;;;5061917;28;20410;-41
2023/03/15 07:17:14;;;;;;;6.60;1.40;;;5.70;99.90;;;;;;5072972;28;20060;-41
2023/03/15 07:19:40;;;;;;;6.05;1.60;;;5.70;99.90;;;;;;5075201;28;20044;-46
2023/03/15 07:22:05;;;;;;;6.95;1.40;;;5.80;99.90;;;;;;5074602;28;20086;-41
2023/03/15 07:24:31;;;;;;;8.73;2.20;;;5.90;99.90;;;;;;5074567;28;20048;-40
2023/03/15 07:26:57;;;;;;;6.57;2.03;;;5.70;99.90;;;;;;5073336;28;20571;-47
2023/03/15 07:29:23;;;;;;;7.43;1.98;;;5.90;99.90;;;;;;5074160;28;20058;-45
2023/03/15 07:31:49;;;;;;;7.85;1.67;;;6.00;99.90;;;;;;5074259;28;20118;-40
2023/03/15 07:34:15;;;;;;;9.02;1.90;;;6.00;99.90;;;;;;5074054;28;20048;-46
2023/03/15 07:36:41;;;;;;;5.78;1.63;;;6.00;99.90;;;;;;5069596;28;20542;-41
2023/03/15 07:39:06;;;;;;;4.70;1.27;;;6.30;99.90;;;;;;5073850;28;20051;-42
2023/03/15 07:41:32;;;;;;;6.20;1.30;;;6.30;99.90;;;;;;5074037;28;20048;-45
2023/03/15 07:43:58;;;;;;;3.58;1.08;;;6.10;99.90;;;;;;5057727;28;20041;-41
2023/03/15 07:46:23;;;;;;;5.60;1.15;;;5.70;99.90;;;;;;5048916;28;20068;-41
2023/03/15 07:48:49;;;;;;;4.70;1.17;;;5.40;99.90;;;;;;5055492;28;20061;-42
2023/03/15 07:51:15;;;;;;;4.90;1.60;;;5.30;99.90;;;;;;5059799;28;20051;-43
2023/03/15 07:53:41;;;;;;;5.65;1.40;;;5.40;99.90;;;;;;5057499;28;20134;-47
2023/03/15 07:56:06;;;;;;;5.32;1.33;;;5.40;99.90;;;;;;5057026;28;20052;-39
2023/03/15 07:58:32;;;;;;;4.03;1.40;;;5.50;99.90;;;;;;5057156;28;20052;-43
2023/03/15 08:00:58;;;;;;;8.38;2.28;;;5.60;99.90;;;;;;5060760;28;20203;-42
2023/03/15 08:03:25;;;;;;;8.02;3.00;;;5.70;99.90;;;;;;5068986;28;20109;-45
2023/03/15 08:05:51;;;;;;;12.23;7.43;;;5.80;99.90;;;;;;5071952;28;20490;-44
2023/03/15 08:08:17;;;;;;;11.95;6.07;;;5.90;99.90;;;;;;5075038;28;20044;-44
2023/03/15 08:10:44;;;;;;;8.57;4.45;;;5.90;99.90;;;;;;5077469;28;20039;-39
2023/03/15 08:13:10;;;;;;;27.95;25.83;;;5.90;99.90;;;;;;5076431;28;20055;-42
2023/03/15 08:15:35;;;;;;;12.80;8.88;;;5.90;99.90;;;;;;5069699;28;20043;-45
2023/03/15 08:18:01;;;;;;;11.73;6.13;;;6.00;99.90;;;;;;5039761;28;20490;-43
2023/03/15 08:20:27;;;;;;;13.35;10.63;;;6.00;99.90;;;;;;5039637;28;20896;-46
2023/03/15 08:22:53;;;;;;;10.18;7.25;;;6.00;99.90;;;;;;5038664;28;20475;-46
2023/03/15 08:25:22;;;;;;;11.43;6.55;;;6.10;99.90;;;;;;5040929;28;20793;-41
2023/03/15 08:27:49;;;;;;;14.98;10.15;;;6.20;99.90;;;;;;5044197;28;20055;-42
2023/03/15 08:30:15;;;;;;;11.05;8.13;;;6.20;99.90;;;;;;5040258;28;20041;-42
2023/03/15 08:32:43;;;;;;;9.32;4.97;;;6.30;99.90;;;;;;5045679;28;20506;-46
2023/03/15 08:35:11;;;;;;;9.63;4.00;;;6.40;99.90;;;;;;5057480;28;20129;-47
2023/03/15 08:37:38;;;;;;;5.93;4.05;;;6.50;99.90;;;;;;5063036;28;20052;-46
2023/03/15 08:40:08;;;;;;;11.55;6.80;;;6.70;99.90;;;;;;5057200;28;20904;-41
2023/03/15 08:42:34;;;;;;;15.88;9.55;;;6.80;99.90;;;;;;5057467;28;20082;-41
2023/03/15 08:45:00;;;;;;;7.38;2.30;;;6.90;99.90;;;;;;5075220;28;20040;-43
2023/03/15 08:47:27;;;;;;;8.80;4.57;;;6.90;99.90;;;;;;5075619;28;20072;-39
2023/03/15 08:49:52;;;;;;;26.42;16.63;;;7.00;99.90;;;;;;5075901;28;20070;-44
2023/03/15 08:52:20;;;;;;;17.42;10.25;;;7.10;99.90;;;;;;5073458;28;20045;-40
2023/03/15 08:54:46;;;;;;;7.03;3.40;;;7.10;99.90;;;;;;5056774;28;20053;-46
2023/03/15 08:57:12;;;;;;;17.17;10.07;;;7.20;99.90;;;;;;5051285;28;20048;-47
2023/03/15 08:59:38;;;;;;;12.65;8.32;;;7.10;99.90;;;;;;5056350;28;20449;-48
2023/03/15 09:02:04;;;;;;;10.75;6.38;;;7.20;99.90;;;;;;5046614;28;20041;-50
2023/03/15 09:04:31;;;;;;;13.50;7.93;;;7.20;99.90;;;;;;5041838;28;20044;-46
2023/03/15 09:06:57;;;;;;;14.15;8.95;;;7.20;99.90;;;;;;5038626;28;20048;-47
2023/03/15 09:09:23;;;;;;;7.20;2.88;;;7.20;99.90;;;;;;5037022;28;20045;-43
2023/03/15 09:11:49;;;;;;;7.72;2.42;;;7.20;99.90;;;;;;5041223;28;20056;-42
2023/03/15 09:14:15;;;;;;;10.25;2.75;;;7.20;99.90;;;;;;5039236;28;20049;-44
2023/03/15 09:16:41;;;;;;;7.15;1.85;;;7.30;99.90;;;;;;5032177;28;20045;-44
2023/03/15 09:19:06;;;;;;;4.93;1.20;;;7.40;99.90;;;;;;5040577;28;20049;-45
2023/03/15 09:21:32;;;;;;;6.57;1.65;;;7.40;99.90;;;;;;5035648;28;20052;-46
2023/03/15 09:23:58;;;;;;;7.03;1.70;;;7.40;99.90;;;;;;5033388;28;20216;-46
2023/03/15 09:26:24;;;;;;;8.57;1.60;;;7.40;99.90;;;;;;5035914;28;20729;-49
2023/03/15 09:28:49;;;;;;;7.40;1.40;;;7.50;99.90;;;;;;5048010;28;20332;-44
2023/03/15 09:31:15;;;;;;;7.45;1.80;;;7.50;99.90;;;;;;5037269;28;20183;-43
2023/03/15 09:33:45;;;;;;;8.82;2.22;;;7.70;99.90;;;;;;5035643;28;20079;-47
2023/03/15 09:36:11;;;;;;;6.40;1.48;;;7.70;99.90;;;;;;5036727;28;20059;-49
2023/03/15 09:38:37;;;;;;;7.00;1.65;;;7.80;99.90;;;;;;5034919;28;20769;-44
2023/03/15 09:41:03;;;;;;;6.40;1.77;;;7.90;99.90;;;;;;5043640;28;20048;-44
2023/03/15 09:43:51;;;;;;;14.35;9.82;;;8.00;99.90;;;;;;5039603;28;20460;-43
2023/03/15 09:46:37;;;;;;;31.13;20.20;;;8.00;99.90;;;;;;5040497;28;20115;-41
2023/03/15 09:49:12;;;;;;;12.55;6.35;;;8.00;99.90;;;;;;5036957;28;20182;-39
2023/03/15 09:52:03;;;;;;;16.70;8.68;;;8.10;99.90;;;;;;5039900;28;20032;-45
2023/03/15 09:54:43;;;;;;;17.25;9.80;;;8.10;99.90;;;;;;5034000;28;20753;-43
2023/03/15 09:57:22;;;;;;;16.48;5.70;;;8.20;99.90;;;;;;5037267;28;20525;-50
2023/03/15 09:59:52;;;;;;;7.03;3.63;;;8.20;99.90;;;;;;5035192;28;20044;-46
2023/03/15 10:02:24;;;;;;;23.42;14.80;;;8.20;99.90;;;;;;5046343;28;20053;-47
2023/03/15 10:05:07;;;;;;;14.80;5.05;;;8.40;99.90;;;;;;5045100;28;20469;-44
2023/03/15 10:07:34;;;;;;;20.83;10.02;;;8.40;99.90;;;;;;5038127;28;20060;-47
2023/03/15 10:10:00;;;;;;;16.02;8.43;;;8.50;99.90;;;;;;5033587;28;20084;-47
2023/03/15 10:12:39;;;;;;;13.63;4.10;;;8.50;99.90;;;;;;5033382;28;20132;-45
2023/03/15 10:15:20;;;;;;;9.48;3.47;;;8.60;99.90;;;;;;5044546;28;20053;-44
2023/03/15 10:17:57;;;;;;;18.48;13.43;;;8.70;99.90;;;;;;5060443;28;20090;-45
2023/03/15 10:20:33;;;;;;;9.95;4.35;;;8.90;99.90;;;;;;5038969;28;20056;-44
2023/03/15 10:23:19;;;;;;;14.57;5.47;;;8.90;99.90;;;;;;5047510;28;20234;-47
2023/03/15 10:25:48;;;;;;;10.98;3.40;;;8.90;99.90;;;;;;5051764;28;20543;-48
2023/03/15 10:28:28;;;;;;;9.75;4.30;;;8.90;99.90;;;;;;5053929;28;20475;-44
2023/03/15 10:30:59;;;;;;;9.95;2.13;;;8.90;99.90;;;;;;5042818;28;20048;-40
2023/03/15 10:33:31;;;;;;;6.43;2.92;;;8.80;99.90;;;;;;5054458;28;20503;-39
2023/03/15 10:35:57;;;;;;;14.65;4.55;;;8.80;99.90;;;;;;5053499;28;20080;-44
2023/03/15 10:38:25;;;;;;;6.00;2.38;;;9.00;99.90;;;;;;5052401;28;20076;-45
2023/03/15 10:40:54;;;;;;;8.65;2.15;;;9.10;99.90;;;;;;5053686;28;20090;-47
2023/03/15 10:43:34;;;;;;;8.45;2.65;;;9.10;99.90;;;;;;5052160;28;20410;-44
2023/03/15 10:46:00;;;;;;;6.78;2.55;;;9.20;99.90;;;;;;5051798;28;20090;-45
2023/03/15 10:48:31;;;;;;;9.13;2.45;;;9.30;99.90;;;;;;5053411;28;20135;-43
2023/03/15 10:51:04;;;;;;;9.18;2.20;;;9.20;99.90;;;;;;5052837;28;20490;-40
2023/03/15 10:53:30;;;;;;;6.35;2.10;;;9.20;99.90;;;;;;5053373;28;20090;-45
2023/03/15 10:56:06;;;;;;;6.22;2.00;;;8.90;99.90;;;;;;5047215;28;20049;-46
2023/03/15 10:58:41;;;;;;;8.60;3.03;;;9.00;99.90;;;;;;5054015;28;20548;-39
2023/03/15 11:01:21;;;;;;;7.78;2.10;;;9.00;99.90;;;;;;5054110;28;20037;-39
2023/03/15 11:04:13;;;;;;;8.48;1.90;;;8.80;99.90;;;;;;5049589;28;20055;-41
2023/03/15 11:06:44;;;;;;;10.27;2.20;;;8.40;99.90;;;;;;5078072;28;20056;-50
2023/03/15 11:09:13;;;;;;;9.02;1.70;;;8.40;99.90;;;;;;5049343;28;20529;-46
2023/03/15 11:12:01;;;;;;;7.50;1.65;;;8.30;99.90;;;;;;5054102;28;20127;-49
2023/03/15 11:14:45;;;;;;;6.03;1.40;;;8.20;99.90;;;;;;5053026;28;20080;-40
2023/03/15 11:17:26;;;;;;;15.45;3.78;;;8.30;99.90;;;;;;5053279;28;20052;-39
2023/03/15 11:19:58;;;;;;;26.73;14.13;;;8.50;99.90;;;;;;5054597;28;20114;-43
2023/03/15 11:22:25;;;;;;;45.28;27.98;;;8.60;99.90;;;;;;5054707;28;20422;-43
2023/03/15 11:24:53;;;;;;;40.95;28.63;;;8.70;99.90;;;;;;5060760;28;20048;-43
2023/03/15 11:27:22;;;;;;;30.77;19.02;;;8.60;99.90;;;;;;5055658;28;20464;-42
2023/03/15 11:29:51;;;;;;;11.05;2.33;;;8.50;99.90;;;;;;5056368;28;20119;-42
2023/03/15 11:32:23;;;;;;;14.52;11.30;;;8.50;99.90;;;;;;5060182;28;20094;-41
2023/03/15 11:35:11;;;;;;;7.70;2.35;;;8.60;99.90;;;;;;5060542;28;20048;-42
2023/03/15 11:37:51;;;;;;;9.45;6.10;;;8.70;99.90;;;;;;5058083;28;20441;-39
2023/03/15 11:40:41;;;;;;;15.52;7.97;;;8.80;99.90;;;;;;5060404;28;20133;-44
2023/03/15 11:43:18;;;;;;;15.05;7.22;;;8.90;99.90;;;;;;5060569;28;20514;-44
2023/03/15 11:45:55;;;;;;;11.88;7.30;;;9.10;99.90;;;;;;5060224;28;20834;-43
2023/03/15 11:48:39;;;;;;;20.25;10.95;;;9.10;99.90;;;;;;5059992;28;20127;-46
2023/03/15 11:51:06;;;;;;;18.08;10.77;;;9.10;99.90;;;;;;5042173;28;20106;-45
2023/03/15 11:53:46;;;;;;;11.93;3.47;;;9.00;99.90;;;;;;5060207;28;20048;-41
2023/03/15 11:56:42;;;;;;;7.88;2.65;;;9.00;99.90;;;;;;5057535;28;20123;-45
2023/03/15 11:59:12;;;;;;;10.30;5.38;;;8.90;99.90;;;;;;5060353;28;20051;-46
2023/03/15 12:01:44;;;;;;;15.32;9.27;;;8.80;99.90;;;;;;5054816;28;20509;-44
2023/03/15 12:04:32;;;;;;;9.15;3.20;;;8.80;99.90;;;;;;5048172;28;20064;-42
2023/03/15 12:07:17;;;;;;;9.45;4.95;;;8.80;99.90;;;;;;5047917;28;20103;-48
2023/03/15 12:09:48;;;;;;;13.52;8.07;;;8.90;99.90;;;;;;5047894;28;20426;-43
2023/03/15 12:12:25;;;;;;;9.93;5.15;;;9.00;99.90;;;;;;5054841;28;20044;-40
2023/03/15 12:15:12;;;;;;;14.07;5.00;;;9.00;99.90;;;;;;5070117;28;20525;-43
2023/03/15 12:17:44;;;;;;;8.35;2.25;;;8.90;99.90;;;;;;5072526;28;20079;-49
2023/03/15 12:20:13;;;;;;;11.82;5.75;;;8.90;99.90;;;;;;5056773;28;20056;-45
2023/03/15 12:23:11;;;;;;;11.00;4.20;;;8.90;99.90;;;;;;5058710;28;20052;-49
2023/03/15 12:26:02;;;;;;;9.65;2.15;;;9.00;99.90;;;;;;5056669;28;20101;-47
2023/03/15 12:28:53;;;;;;;7.65;3.50;;;9.10;99.90;;;;;;5070972;28;20059;-46
2023/03/15 12:31:19;;;;;;;8.75;3.92;;;9.20;99.90;;;;;;5059259;28;20078;-48
2023/03/15 12:33:51;;;;;;;12.70;7.05;;;9.20;99.90;;;;;;5039429;28;20059;-39
2023/03/15 12:36:36;;;;;;;11.27;5.03;;;9.30;99.90;;;;;;5049989;28;20060;-46
2023/03/15 12:39:14;;;;;;;18.05;10.10;;;9.20;99.90;;;;;;5052681;28;20088;-42
2023/03/15 12:41:50;;;;;;;6.63;3.00;;;9.20;99.90;;;;;;5053358;28;20044;-45
2023/03/15 12:44:31;;;;;;;10.95;3.97;;;9.20;99.90;;;;;;5066254;28;20499;-41
2023/03/15 12:47:01;;;;;;;20.63;9.73;;;9.20;99.90;;;;;;5073179;28;20581;-40
2023/03/15 12:49:32;;;;;;;12.63;5.40;;;9.20;99.90;;;;;;5057584;28;20406;-44
2023/03/15 12:52:00;;;;;;;20.58;10.82;;;9.10;99.90;;;;;;5060466;28;20049;-46
2023/03/15 12:54:36;;;;;;;16.42;8.88;;;9.00;99.90;;;;;;5053618;28;20068;-47
2023/03/15 12:57:03;;;;;;;9.45;4.93;;;8.80;99.90;;;;;;5031549;28;20460;-42
2023/03/15 12:59:50;;;;;;;17.33;11.00;;;8.70;99.90;;;;;;5053438;28;20411;-48
2023/03/15 13:02:28;;;;;;;60.28;54.80;;;8.70;99.90;;;;;;5047123;28;20111;-45